createdAt,value
2019-03-30T00:00:53.712Z,102053.53
2019-03-30T00:06:01.564Z,102046.98
2019-03-30T00:11:07.219Z,102035.98
2019-03-30T00:16:13.241Z,102030.06
2019-03-30T00:21:18.964Z,102030.35
2019-03-30T00:26:24.989Z,102025.56
2019-03-30T00:31:31.038Z,102018.34
2019-03-30T00:36:37.322Z,102013.67
2019-03-30T00:41:43.311Z,102014.13
2019-03-30T00:46:49.398Z,102005.00
2019-03-30T00:51:55.726Z,102005.78
2019-03-30T00:57:03.184Z,102006.99
2019-03-30T01:02:08.926Z,102009.36
2019-03-30T01:07:14.480Z,101999.90
2019-03-30T01:12:20.646Z,101997.72
2019-03-30T01:17:27.073Z,101995.16
2019-03-30T01:22:32.788Z,101997.28
2019-03-30T01:27:38.731Z,101990.06
2019-03-30T01:32:44.594Z,101994.59
2019-03-30T01:37:50.591Z,101988.72
2019-03-30T01:42:56.670Z,101986.04
2019-03-30T01:48:02.550Z,101982.61
2019-03-30T01:53:08.165Z,101983.03
2019-03-30T01:58:13.808Z,101972.22
2019-03-30T02:03:19.752Z,101973.20
2019-03-30T02:08:25.692Z,101982.04
2019-03-30T02:13:31.289Z,101971.97
2019-03-30T02:18:37.374Z,101969.92
2019-03-30T02:23:42.969Z,101966.09
2019-03-30T02:28:48.783Z,101953.66
2019-03-30T02:33:55.030Z,101957.80
2019-03-30T02:39:02.199Z,101956.59
2019-03-30T02:44:09.618Z,101950.61
2019-03-30T02:49:16.981Z,101945.36
2019-03-30T02:54:24.372Z,101948.16
2019-03-30T02:59:30.663Z,101948.16
2019-03-30T03:04:36.213Z,101951.13
2019-03-30T03:09:41.924Z,101952.22
2019-03-30T03:14:47.516Z,101937.10
2019-03-30T03:19:53.181Z,101934.20
2019-03-30T03:24:58.977Z,101931.06
2019-03-30T03:30:06.092Z,101923.11
2019-03-30T03:35:12.405Z,101912.30
2019-03-30T03:40:18.297Z,101915.09
2019-03-30T03:45:23.887Z,101911.67
2019-03-30T03:50:36.558Z,101912.27
2019-03-30T03:55:43.077Z,101901.17
2019-03-30T04:00:51.194Z,101904.71
2019-03-30T04:05:58.960Z,101905.06
2019-03-30T04:11:04.852Z,101898.18
2019-03-30T04:16:10.409Z,101894.61
2019-03-30T04:21:16.311Z,101893.87
2019-03-30T04:26:22.854Z,101879.95
2019-03-30T04:31:28.584Z,101877.91
2019-03-30T04:36:34.228Z,101889.88
2019-03-30T04:41:39.863Z,101883.94
2019-03-30T04:46:45.506Z,101886.66
2019-03-30T04:51:57.390Z,101882.35
2019-03-30T04:57:00.035Z,101880.05
2019-03-30T05:02:06.807Z,101876.97
2019-03-30T05:07:13.458Z,101878.05
2019-03-30T05:12:19.711Z,101860.27
2019-03-30T05:17:25.500Z,101861.31
2019-03-30T05:22:31.362Z,101862.02
2019-03-30T05:27:36.927Z,101865.19
2019-03-30T05:32:44.721Z,101867.03
2019-03-30T05:37:50.540Z,101864.20
2019-03-30T05:42:56.377Z,101867.66
2019-03-30T05:48:02.023Z,101861.80
2019-03-30T05:53:07.636Z,101854.98
2019-03-30T05:58:13.461Z,101864.31
2019-03-30T06:03:19.343Z,101864.88
2019-03-30T06:08:25.177Z,101860.78
2019-03-30T06:13:31.401Z,101858.09
2019-03-30T06:18:37.649Z,101856.82
2019-03-30T06:23:43.316Z,101846.84
2019-03-30T06:28:48.881Z,101839.48
2019-03-30T06:33:54.647Z,101840.69
2019-03-30T06:39:00.456Z,101833.00
2019-03-30T06:44:07.803Z,101826.82
2019-03-30T06:49:13.382Z,101829.53
2019-03-30T06:54:21.872Z,101825.58
2019-03-30T06:59:29.137Z,101826.13
2019-03-30T07:04:34.779Z,101820.41
2019-03-30T07:09:41.305Z,101812.38
2019-03-30T07:14:49.290Z,101818.88
2019-03-30T07:19:55.153Z,101817.88
2019-03-30T07:25:01.159Z,101813.55
2019-03-30T07:30:08.548Z,101815.30
2019-03-30T07:35:14.460Z,101812.84
2019-03-30T07:40:20.507Z,101811.14
2019-03-30T07:45:26.102Z,101818.53
2019-03-30T07:50:33.321Z,101828.41
2019-03-30T07:55:39.448Z,101817.08
2019-03-30T08:00:45.559Z,101819.83
2019-03-30T08:05:54.391Z,101813.69
2019-03-30T08:10:59.861Z,101815.98
2019-03-30T08:16:05.999Z,101816.09
2019-03-30T08:21:11.568Z,101807.63
2019-03-30T08:26:17.226Z,101807.23
2019-03-30T08:31:23.298Z,101797.29
2019-03-30T08:36:28.946Z,101789.63
2019-03-30T08:41:34.804Z,101789.23
2019-03-30T08:46:41.397Z,101785.06
2019-03-30T08:51:47.349Z,101784.39
2019-03-30T08:56:54.566Z,101778.54
2019-03-30T09:02:00.382Z,101775.78
2019-03-30T09:07:06.193Z,101773.86
2019-03-30T09:12:11.977Z,101761.02
2019-03-30T09:17:18.476Z,101757.11
2019-03-30T09:22:24.657Z,101750.59
2019-03-30T09:27:31.742Z,101746.59
2019-03-30T09:32:37.866Z,101731.42
2019-03-30T09:37:44.269Z,101734.20
2019-03-30T09:42:49.937Z,101721.32
2019-03-30T09:47:57.120Z,101720.77
2019-03-30T09:53:02.774Z,101721.52
2019-03-30T09:58:08.362Z,101722.30
2019-03-30T10:03:13.953Z,101709.81
2019-03-30T10:08:19.987Z,101705.68
2019-03-30T10:13:27.518Z,101691.22
2019-03-30T10:18:33.268Z,101681.44
2019-03-30T10:23:40.250Z,101678.68
2019-03-30T10:28:47.198Z,101677.70
2019-03-30T10:33:54.785Z,101676.39
2019-03-30T10:39:00.425Z,101663.38
2019-03-30T10:44:08.788Z,101662.27
2019-03-30T10:49:14.753Z,101650.31
2019-03-30T10:54:20.506Z,101647.59
2019-03-30T10:59:27.597Z,101645.08
2019-03-30T11:04:33.538Z,101633.92
2019-03-30T11:09:39.515Z,101630.03
2019-03-30T11:14:46.170Z,101612.95
2019-03-30T11:19:52.676Z,101605.89
2019-03-30T11:25:07.269Z,101598.02
2019-03-30T11:30:07.672Z,101593.99
2019-03-30T11:35:13.754Z,101594.73
2019-03-30T11:40:20.152Z,101580.48
2019-03-30T11:45:25.717Z,101571.63
2019-03-30T11:50:32.117Z,101566.86
2019-03-30T11:55:37.924Z,101559.46
2019-03-30T12:00:44.087Z,101545.39
2019-03-30T12:05:50.712Z,101539.80
2019-03-30T12:10:56.558Z,101536.97
2019-03-30T12:16:04.525Z,101508.30
2019-03-30T12:21:11.236Z,101498.59
2019-03-30T12:26:17.230Z,101491.05
2019-03-30T12:31:24.355Z,101484.12
2019-03-30T12:36:30.294Z,101473.23
2019-03-30T12:41:37.781Z,101464.48
2019-03-30T12:46:44.599Z,101461.63
2019-03-30T12:51:52.016Z,101460.07
2019-03-30T12:56:57.883Z,101464.91
2019-03-30T13:02:04.790Z,101460.82
2019-03-30T13:07:14.479Z,101448.61
2019-03-30T13:12:23.222Z,101449.11
2019-03-30T13:17:29.450Z,101437.05
2019-03-30T13:22:37.732Z,101433.54
2019-03-30T13:27:44.613Z,101427.23
2019-03-30T13:32:53.566Z,101425.69
2019-03-30T13:38:01.764Z,101402.63
2019-03-30T13:43:11.213Z,101406.12
2019-03-30T13:48:19.576Z,101397.58
2019-03-30T13:53:29.131Z,101380.95
2019-03-30T13:58:36.583Z,101377.61
2019-03-30T14:03:43.085Z,101391.62
2019-03-30T14:08:50.789Z,101392.36
2019-03-30T14:13:56.716Z,101387.08
2019-03-30T14:19:02.523Z,101363.36
2019-03-30T14:24:12.089Z,101358.30
2019-03-30T14:29:20.580Z,101354.86
2019-03-30T14:34:30.588Z,101346.71
2019-03-30T14:39:38.715Z,101353.03
2019-03-30T14:44:48.054Z,101331.63
2019-03-30T14:49:55.512Z,101323.58
2019-03-30T14:55:02.584Z,101315.50
2019-03-30T15:00:11.789Z,101299.20
2019-03-30T15:05:18.986Z,101291.63
2019-03-30T15:10:30.665Z,101285.62
2019-03-30T15:15:40.100Z,101289.62
2019-03-30T15:20:46.523Z,101275.98
2019-03-30T15:25:53.440Z,101268.64
2019-03-30T15:31:01.931Z,101268.20
2019-03-30T15:36:09.057Z,101265.78
2019-03-30T15:41:16.004Z,101251.94
2019-03-30T15:46:23.472Z,101251.02
2019-03-30T15:51:32.325Z,101243.11
2019-03-30T15:56:42.760Z,101243.37
2019-03-30T16:01:51.122Z,101248.07
2019-03-30T16:06:59.460Z,101235.59
2019-03-30T16:12:07.789Z,101234.77
2019-03-30T16:17:14.990Z,101231.25
2019-03-30T16:22:23.924Z,101238.41
2019-03-30T16:27:33.440Z,101236.47
2019-03-30T16:32:41.519Z,101224.62
2019-03-30T16:37:48.448Z,101224.75
2019-03-30T16:42:55.573Z,101229.34
2019-03-30T16:48:04.004Z,101224.20
2019-03-30T16:53:11.524Z,101217.36
2019-03-30T16:58:21.268Z,101219.78
2019-03-30T17:03:28.272Z,101215.20
2019-03-30T17:08:36.613Z,101209.27
2019-03-30T17:13:43.095Z,101218.30
2019-03-30T17:18:51.311Z,101209.89
2019-03-30T17:23:59.068Z,101206.36
2019-03-30T17:29:05.394Z,101198.63
2019-03-30T17:34:12.074Z,101194.98
2019-03-30T17:39:19.511Z,101202.95
2019-03-30T17:44:27.604Z,101197.03
2019-03-30T17:49:34.415Z,101207.44
2019-03-30T17:54:41.827Z,101207.25
2019-03-30T17:59:50.436Z,101215.53
2019-03-30T18:04:59.332Z,101212.17
2019-03-30T18:10:09.344Z,101203.14
2019-03-30T18:15:16.657Z,101205.02
2019-03-30T18:20:23.136Z,101210.77
2019-03-30T18:25:29.982Z,101213.83
2019-03-30T18:30:42.151Z,101204.52
2019-03-30T18:35:49.195Z,101207.54
2019-03-30T18:40:54.829Z,101208.75
2019-03-30T18:46:01.714Z,101213.06
2019-03-30T18:51:08.354Z,101211.25
2019-03-30T18:56:14.850Z,101214.13
2019-03-30T19:01:22.984Z,101212.48
2019-03-30T19:06:30.358Z,101215.45
2019-03-30T19:11:37.846Z,101211.76
2019-03-30T19:16:43.975Z,101216.66
2019-03-30T19:21:50.073Z,101209.41
2019-03-30T19:26:56.047Z,101204.14
2019-03-30T19:32:03.759Z,101205.58
2019-03-30T19:37:11.069Z,101206.14
2019-03-30T19:42:16.994Z,101200.36
2019-03-30T19:47:23.782Z,101200.77
2019-03-30T19:52:39.848Z,101203.34
2019-03-30T19:57:37.544Z,101191.47
2019-03-30T20:02:43.825Z,101198.20
2019-03-30T20:07:52.751Z,101192.16
2019-03-30T20:12:59.993Z,101180.99
2019-03-30T20:18:07.483Z,101182.63
2019-03-30T20:23:13.701Z,101182.04
2019-03-30T20:28:20.817Z,101193.42
2019-03-30T20:33:26.802Z,101194.05
2019-03-30T20:38:33.817Z,101181.92
2019-03-30T20:43:40.265Z,101171.08
2019-03-30T20:48:48.901Z,101176.98
2019-03-30T20:53:56.447Z,101172.02
2019-03-30T20:59:03.215Z,101170.78
2019-03-30T21:04:08.989Z,101171.66
2019-03-30T21:09:14.870Z,101172.33
2019-03-30T21:14:21.944Z,101163.66
2019-03-30T21:19:28.662Z,101170.20
2019-03-30T21:24:36.607Z,101157.94
2019-03-30T21:29:54.622Z,101160.11
2019-03-30T21:34:56.007Z,101154.84
2019-03-30T21:40:06.809Z,101160.83
2019-03-30T21:45:15.793Z,101153.52
2019-03-30T21:50:23.359Z,101154.30
2019-03-30T21:55:29.995Z,101159.88
2019-03-30T22:00:40.061Z,101165.28
2019-03-30T22:05:47.663Z,101161.02
2019-03-30T22:10:53.444Z,101161.76
2019-03-30T22:15:59.115Z,101164.09
2019-03-30T22:21:05.967Z,101157.84
2019-03-30T22:26:13.102Z,101161.32
2019-03-30T22:31:20.088Z,101155.45
2019-03-30T22:36:28.211Z,101158.58
2019-03-30T22:41:35.431Z,101158.03
2019-03-30T22:46:43.426Z,101148.95
2019-03-30T22:51:52.234Z,101151.71
2019-03-30T22:56:58.151Z,101145.04
2019-03-30T23:02:04.809Z,101145.82
2019-03-30T23:07:12.247Z,101139.31
2019-03-30T23:12:19.403Z,101134.24
2019-03-30T23:17:27.358Z,101137.93
2019-03-30T23:22:33.413Z,101137.72
2019-03-30T23:27:39.650Z,101138.63
2019-03-30T23:32:45.700Z,101127.17
2019-03-30T23:37:53.392Z,101135.56
2019-03-30T23:42:59.635Z,101130.66
2019-03-30T23:48:05.223Z,101134.83
2019-03-30T23:53:13.659Z,101130.73
2019-03-30T23:58:21.344Z,101131.23
